createdAt,value
2017-05-21T00:00:39.388Z,0
2017-05-21T00:01:39.993Z,0
2017-05-21T00:02:39.678Z,0
2017-05-21T00:03:39.675Z,0
2017-05-21T00:04:39.673Z,0
2017-05-21T00:05:39.664Z,0
2017-05-21T00:06:39.656Z,0
2017-05-21T00:07:39.420Z,0
2017-05-21T00:08:39.953Z,0
2017-05-21T00:09:39.707Z,0
2017-05-21T00:10:39.647Z,0
2017-05-21T00:11:39.631Z,0
2017-05-21T00:12:39.937Z,0
2017-05-21T00:13:39.628Z,0
2017-05-21T00:14:39.924Z,0
2017-05-21T00:15:39.613Z,0
2017-05-21T00:16:39.914Z,0
2017-05-21T00:17:39.608Z,0
2017-05-21T00:18:39.600Z,0
2017-05-21T00:19:39.594Z,0
2017-05-21T00:20:39.895Z,0
2017-05-21T00:21:39.892Z,0
2017-05-21T00:22:39.886Z,0
2017-05-21T00:23:39.884Z,0
2017-05-21T00:24:39.576Z,0
2017-05-21T00:25:39.566Z,0
2017-05-21T00:26:39.564Z,0
2017-05-21T00:27:39.252Z,0
2017-05-21T00:28:39.240Z,0
2017-05-21T00:29:39.236Z,0
2017-05-21T00:30:38.925Z,0
2017-05-21T00:31:38.996Z,0
2017-05-21T00:32:39.222Z,0
2017-05-21T00:33:39.574Z,0
2017-05-21T00:34:38.903Z,0
2017-05-21T00:35:39.509Z,0
2017-05-21T00:36:39.506Z,0
2017-05-21T00:37:39.194Z,0
2017-05-21T00:38:39.191Z,0
2017-05-21T00:39:39.798Z,0
2017-05-21T00:40:39.493Z,0
2017-05-21T00:41:39.482Z,0
2017-05-21T00:42:39.173Z,0
2017-05-21T00:43:39.476Z,0
2017-05-21T00:44:39.519Z,0
2017-05-21T00:45:39.475Z,0
2017-05-21T00:46:39.761Z,0
2017-05-21T00:47:39.767Z,0
2017-05-21T00:48:39.448Z,0
2017-05-21T00:49:39.751Z,0
2017-05-21T00:50:39.132Z,0
2017-05-21T00:51:39.430Z,0
2017-05-21T00:52:39.430Z,0
2017-05-21T00:53:39.422Z,0
2017-05-21T00:54:39.116Z,0
2017-05-21T00:55:39.719Z,0
2017-05-21T00:56:39.102Z,0
2017-05-21T00:57:39.406Z,0
2017-05-21T00:58:39.410Z,0
2017-05-21T00:59:39.490Z,0
2017-05-21T01:00:39.393Z,0
2017-05-21T01:01:39.386Z,0
2017-05-21T01:02:38.764Z,0
2017-05-21T01:03:39.063Z,0
2017-05-21T01:04:39.369Z,0
2017-05-21T01:05:39.058Z,0
2017-05-21T01:06:39.050Z,0
2017-05-21T01:07:39.666Z,0
2017-05-21T01:08:39.347Z,0
2017-05-21T01:09:39.344Z,0
2017-05-21T01:10:39.030Z,0
2017-05-21T01:11:39.637Z,0
2017-05-21T01:12:39.634Z,0
2017-05-21T01:13:39.324Z,0
2017-05-21T01:14:39.622Z,0
2017-05-21T01:15:39.008Z,0
2017-05-21T01:16:39.306Z,0
2017-05-21T01:17:39.306Z,0
2017-05-21T01:18:38.988Z,0
2017-05-21T01:19:39.601Z,0
2017-05-21T01:20:39.286Z,0
2017-05-21T01:21:39.588Z,0
2017-05-21T01:22:39.583Z,0
2017-05-21T01:23:39.277Z,0
2017-05-21T01:24:38.963Z,0
2017-05-21T01:25:39.259Z,0
2017-05-21T01:26:38.946Z,0
2017-05-21T01:27:38.945Z,0
2017-05-21T01:28:38.634Z,0
2017-05-21T01:29:39.550Z,0
2017-05-21T01:30:38.930Z,0
2017-05-21T01:31:38.923Z,0
2017-05-21T01:32:38.919Z,0
2017-05-21T01:33:38.916Z,0
2017-05-21T01:34:39.216Z,0
2017-05-21T01:35:38.904Z,0
2017-05-21T01:36:38.896Z,0
2017-05-21T01:37:39.516Z,0
2017-05-21T01:38:39.201Z,0
2017-05-21T01:39:38.887Z,0
2017-05-21T01:40:39.184Z,0
2017-05-21T01:41:38.871Z,0
2017-05-21T01:42:38.869Z,0
2017-05-21T01:43:39.479Z,0
2017-05-21T01:44:39.168Z,0
2017-05-21T01:45:39.158Z,0
2017-05-21T01:46:39.454Z,0
2017-05-21T01:47:39.457Z,0
2017-05-21T01:48:38.542Z,0
2017-05-21T01:49:39.140Z,0
2017-05-21T01:50:39.131Z,0
2017-05-21T01:51:39.144Z,0
2017-05-21T01:52:39.124Z,0
2017-05-21T01:53:39.432Z,0
2017-05-21T01:54:39.113Z,0
2017-05-21T01:55:38.802Z,0
2017-05-21T01:56:39.102Z,0
2017-05-21T01:57:39.098Z,0
2017-05-21T01:58:38.790Z,0
2017-05-21T01:59:39.494Z,0
2017-05-21T02:00:39.387Z,0
2017-05-21T02:01:39.380Z,0
2017-05-21T02:02:39.381Z,0
2017-05-21T02:03:39.067Z,0
2017-05-21T02:04:39.058Z,0
2017-05-21T02:05:39.052Z,0
2017-05-21T02:06:39.052Z,0
2017-05-21T02:07:39.042Z,0
2017-05-21T02:08:39.042Z,0
2017-05-21T02:09:39.343Z,0
2017-05-21T02:10:39.331Z,0
2017-05-21T02:11:38.716Z,0
2017-05-21T02:12:39.328Z,0
2017-05-21T02:13:39.013Z,0
2017-05-21T02:14:39.009Z,0
2017-05-21T02:15:38.388Z,0
2017-05-21T02:16:38.688Z,0
2017-05-21T02:17:38.686Z,0
2017-05-21T02:18:39.003Z,0
2017-05-21T02:19:38.981Z,0
2017-05-21T02:20:38.972Z,0
2017-05-21T02:21:38.968Z,0
2017-05-21T02:22:38.412Z,0
2017-05-21T02:23:38.972Z,0
2017-05-21T02:24:38.958Z,0
2017-05-21T02:25:39.255Z,0
2017-05-21T02:26:39.310Z,0
2017-05-21T02:27:39.251Z,0
2017-05-21T02:28:39.242Z,0
2017-05-21T02:29:39.236Z,0
2017-05-21T02:30:38.926Z,0
2017-05-21T02:31:39.229Z,0
2017-05-21T02:32:39.219Z,0
2017-05-21T02:33:39.216Z,0
2017-05-21T02:34:39.211Z,0
2017-05-21T02:35:39.211Z,0
2017-05-21T02:36:39.197Z,0
2017-05-21T02:37:39.199Z,0
2017-05-21T02:38:39.188Z,0
2017-05-21T02:39:38.574Z,0
2017-05-21T02:40:38.872Z,0
2017-05-21T02:41:39.176Z,0
2017-05-21T02:42:38.861Z,0
2017-05-21T02:43:38.548Z,0
2017-05-21T02:44:39.160Z,0
2017-05-21T02:45:39.152Z,0
2017-05-21T02:46:38.844Z,0
2017-05-21T02:47:38.837Z,0
2017-05-21T02:48:39.139Z,0
2017-05-21T02:49:38.826Z,0
2017-05-21T02:50:38.512Z,0
2017-05-21T02:51:39.120Z,0
2017-05-21T02:52:38.502Z,0
2017-05-21T02:53:38.806Z,0
2017-05-21T02:54:39.005Z,0
2017-05-21T02:55:39.102Z,0
2017-05-21T02:56:39.095Z,0
2017-05-21T02:57:38.787Z,0
2017-05-21T02:58:38.480Z,0
2017-05-21T02:59:38.774Z,0
2017-05-21T03:00:39.073Z,0
2017-05-21T03:01:38.762Z,0
2017-05-21T03:02:38.760Z,0
2017-05-21T03:03:39.064Z,0
2017-05-21T03:04:39.054Z,0
2017-05-21T03:05:39.051Z,0
2017-05-21T03:06:38.737Z,0
2017-05-21T03:07:39.042Z,4
2017-05-21T03:08:39.039Z,4
2017-05-21T03:09:39.028Z,0
2017-05-21T03:10:39.020Z,4
2017-05-21T03:11:38.715Z,4
2017-05-21T03:12:38.407Z,4
2017-05-21T03:13:38.395Z,4
2017-05-21T03:14:38.391Z,8
2017-05-21T03:15:38.386Z,8
2017-05-21T03:16:38.384Z,8
2017-05-21T03:17:38.687Z,12
2017-05-21T03:18:38.985Z,12
2017-05-21T03:19:38.976Z,12
2017-05-21T03:20:39.026Z,12
2017-05-21T03:21:38.655Z,16
2017-05-21T03:22:38.651Z,16
2017-05-21T03:23:38.042Z,20
2017-05-21T03:24:38.951Z,20
2017-05-21T03:25:38.637Z,24
2017-05-21T03:26:38.940Z,28
2017-05-21T03:27:38.932Z,32
2017-05-21T03:28:38.928Z,36
2017-05-21T03:29:38.930Z,40
2017-05-21T03:30:38.915Z,44
2017-05-21T03:31:38.312Z,52
2017-05-21T03:32:37.986Z,56
2017-05-21T03:33:38.602Z,60
2017-05-21T03:34:38.591Z,68
2017-05-21T03:35:38.893Z,76
2017-05-21T03:36:38.584Z,84
2017-05-21T03:37:37.961Z,88
2017-05-21T03:38:38.569Z,100
2017-05-21T03:39:38.566Z,108
2017-05-21T03:40:38.561Z,116
2017-05-21T03:41:38.553Z,124
2017-05-21T03:42:38.855Z,140
2017-05-21T03:43:38.552Z,148
2017-05-21T03:44:38.848Z,164
2017-05-21T03:45:38.836Z,172
2017-05-21T03:46:38.217Z,188
2017-05-21T03:47:38.215Z,204
2017-05-21T03:48:38.825Z,212
2017-05-21T03:49:38.511Z,228
2017-05-21T03:50:38.506Z,244
2017-05-21T03:51:38.807Z,260
2017-05-21T03:52:38.496Z,276
2017-05-21T03:53:38.795Z,296
2017-05-21T03:54:38.183Z,312
2017-05-21T03:55:38.481Z,332
2017-05-21T03:56:38.781Z,352
2017-05-21T03:57:38.473Z,372
2017-05-21T03:58:38.465Z,396
2017-05-21T03:59:38.458Z,424
2017-05-21T04:00:37.848Z,440
2017-05-21T04:01:38.446Z,464
2017-05-21T04:02:38.446Z,488
2017-05-21T04:03:38.752Z,508
2017-05-21T04:04:38.437Z,528
2017-05-21T04:05:38.427Z,564
2017-05-21T04:06:38.728Z,576
2017-05-21T04:07:38.723Z,596
2017-05-21T04:08:38.718Z,624
2017-05-21T04:09:38.408Z,660
2017-05-21T04:10:38.717Z,684
2017-05-21T04:11:38.704Z,724
2017-05-21T04:12:38.698Z,760
2017-05-21T04:13:38.699Z,784
2017-05-21T04:14:38.689Z,816
2017-05-21T04:15:38.678Z,860
2017-05-21T04:16:38.373Z,892
2017-05-21T04:17:38.670Z,928
2017-05-21T04:18:38.056Z,964
2017-05-21T04:19:38.658Z,1012
2017-05-21T04:20:38.647Z,1064
2017-05-21T04:21:38.345Z,1152
2017-05-21T04:22:38.640Z,1272
2017-05-21T04:23:38.645Z,1420
2017-05-21T04:24:38.631Z,1528
2017-05-21T04:25:38.017Z,1596
2017-05-21T04:26:38.316Z,1648
2017-05-21T04:27:38.615Z,1696
2017-05-21T04:28:38.613Z,1740
2017-05-21T04:29:37.993Z,1788
2017-05-21T04:30:38.604Z,1848
2017-05-21T04:31:38.591Z,1900
2017-05-21T04:32:38.592Z,1964
2017-05-21T04:33:38.282Z,2008
2017-05-21T04:34:38.271Z,2056
2017-05-21T04:35:38.272Z,2108
2017-05-21T04:36:38.568Z,2160
2017-05-21T04:37:37.955Z,2208
2017-05-21T04:38:37.946Z,2260
2017-05-21T04:39:38.260Z,2308
2017-05-21T04:40:38.554Z,2360
2017-05-21T04:41:38.544Z,2428
2017-05-21T04:42:38.235Z,2476
2017-05-21T04:43:38.536Z,2532
2017-05-21T04:44:38.224Z,2592
2017-05-21T04:45:38.221Z,2660
2017-05-21T04:46:38.524Z,2720
2017-05-21T04:47:38.517Z,2776
2017-05-21T04:48:38.514Z,2844
2017-05-21T04:49:38.199Z,2912
2017-05-21T04:50:38.497Z,2960
2017-05-21T04:51:38.191Z,3016
2017-05-21T04:52:38.188Z,3116
2017-05-21T04:53:38.186Z,3176
2017-05-21T04:54:37.871Z,3264
2017-05-21T04:55:37.867Z,3368
2017-05-21T04:56:38.169Z,3584
2017-05-21T04:57:38.480Z,3760
2017-05-21T04:58:38.468Z,3816
2017-05-21T04:59:38.157Z,3916
2017-05-21T05:00:38.152Z,4072
2017-05-21T05:01:38.151Z,4168
2017-05-21T05:02:37.840Z,4260
2017-05-21T05:03:38.142Z,4328
2017-05-21T05:04:38.436Z,4336
2017-05-21T05:05:38.128Z,4448
2017-05-21T05:06:38.124Z,4604
2017-05-21T05:07:38.424Z,4952
2017-05-21T05:08:38.120Z,5756
2017-05-21T05:09:38.113Z,6092
2017-05-21T05:10:38.111Z,5696
2017-05-21T05:11:38.106Z,5708
2017-05-21T05:12:37.798Z,5872
2017-05-21T05:13:38.405Z,6000
2017-05-21T05:14:38.400Z,6244
2017-05-21T05:15:37.485Z,6336
2017-05-21T05:16:38.088Z,6524
2017-05-21T05:17:38.392Z,6664
2017-05-21T05:18:38.389Z,6788
2017-05-21T05:19:38.078Z,6932
2017-05-21T05:20:38.079Z,7136
2017-05-21T05:21:38.067Z,7268
2017-05-21T05:22:38.066Z,7332
2017-05-21T05:23:38.068Z,7488
2017-05-21T05:24:37.756Z,7600
2017-05-21T05:25:38.057Z,8268
2017-05-21T05:26:38.359Z,9648
2017-05-21T05:27:38.055Z,11632
2017-05-21T05:28:38.051Z,14048
2017-05-21T05:29:38.051Z,16224
2017-05-21T05:30:38.048Z,17408
2017-05-21T05:31:38.351Z,17408
2017-05-21T05:32:38.037Z,17376
2017-05-21T05:33:38.345Z,17952
2017-05-21T05:34:38.031Z,18720
2017-05-21T05:35:38.340Z,18720
2017-05-21T05:36:38.029Z,19200
2017-05-21T05:37:38.336Z,20256
2017-05-21T05:38:38.025Z,21024
2017-05-21T05:39:38.327Z,21664
2017-05-21T05:40:38.328Z,22304
2017-05-21T05:41:38.322Z,22688
2017-05-21T05:42:37.711Z,23072
2017-05-21T05:43:38.324Z,23072
2017-05-21T05:44:38.319Z,23520
2017-05-21T05:45:38.320Z,24224
2017-05-21T05:46:38.319Z,24000
2017-05-21T05:47:38.310Z,24096
2017-05-21T05:48:38.316Z,24224
2017-05-21T05:49:38.318Z,24352
2017-05-21T05:50:38.007Z,25088
2017-05-21T05:51:38.310Z,25696
2017-05-21T05:52:38.305Z,26208
2017-05-21T05:53:38.003Z,26912
2017-05-21T05:54:38.309Z,28704
2017-05-21T05:55:37.995Z,29152
2017-05-21T05:56:38.303Z,27968
2017-05-21T05:57:38.303Z,28352
2017-05-21T05:58:37.701Z,29184
2017-05-21T05:59:38.303Z,29280
2017-05-21T06:00:38.302Z,29120
2017-05-21T06:01:37.995Z,30112
2017-05-21T06:02:37.997Z,30528
2017-05-21T06:03:38.302Z,30400
2017-05-21T06:04:38.354Z,31360
2017-05-21T06:05:37.992Z,31520
2017-05-21T06:06:38.302Z,32288
2017-05-21T06:07:38.305Z,32704
2017-05-21T06:08:38.306Z,32000
2017-05-21T06:09:37.995Z,31968
2017-05-21T06:10:37.996Z,33984
2017-05-21T06:11:38.302Z,34944
2017-05-21T06:12:38.301Z,34112
2017-05-21T06:13:38.302Z,35264
2017-05-21T06:14:38.304Z,36288
2017-05-21T06:15:38.306Z,35552
2017-05-21T06:16:37.692Z,34400
2017-05-21T06:17:38.307Z,34176
2017-05-21T06:18:38.313Z,34016
2017-05-21T06:19:37.763Z,33984
2017-05-21T06:20:37.704Z,34688
2017-05-21T06:21:38.008Z,34848
2017-05-21T06:22:38.318Z,34656
2017-05-21T06:23:38.011Z,34304
2017-05-21T06:24:38.317Z,35872
2017-05-21T06:25:38.008Z,36928
2017-05-21T06:26:38.012Z,37408
2017-05-21T06:27:38.323Z,37408
2017-05-21T06:28:38.322Z,37408
2017-05-21T06:29:38.328Z,37376
2017-05-21T06:30:38.018Z,38464
2017-05-21T06:31:37.407Z,37664
2017-05-21T06:32:38.391Z,36672
2017-05-21T06:33:38.028Z,36096
2017-05-21T06:34:38.027Z,35872
2017-05-21T06:35:37.722Z,36288
2017-05-21T06:36:38.033Z,37184
2017-05-21T06:37:38.343Z,38048
2017-05-21T06:38:37.731Z,37216
2017-05-21T06:39:37.737Z,36192
2017-05-21T06:40:37.737Z,35776
2017-05-21T06:41:38.050Z,36352
2017-05-21T06:42:37.747Z,38208
2017-05-21T06:43:38.358Z,38432
2017-05-21T06:44:37.750Z,37216
2017-05-21T06:45:38.426Z,36224
2017-05-21T06:46:38.366Z,37120
2017-05-21T06:47:38.369Z,39744
2017-05-21T06:48:37.760Z,39648
2017-05-21T06:49:37.757Z,39808
2017-05-21T06:50:38.065Z,40640
2017-05-21T06:51:38.381Z,41152
2017-05-21T06:52:38.080Z,39072
2017-05-21T06:53:38.078Z,38080
2017-05-21T06:54:38.083Z,38112
2017-05-21T06:55:38.391Z,37600
2017-05-21T06:56:38.394Z,37888
2017-05-21T06:57:38.095Z,37600
2017-05-21T06:58:38.399Z,35872
2017-05-21T06:59:38.405Z,37184
2017-05-21T07:00:38.097Z,37984
2017-05-21T07:01:38.102Z,38592
2017-05-21T07:02:37.801Z,39808
2017-05-21T07:03:38.108Z,39872
2017-05-21T07:04:38.111Z,38976
2017-05-21T07:05:38.471Z,38304
2017-05-21T07:06:37.810Z,39296
2017-05-21T07:07:38.122Z,39424
2017-05-21T07:08:38.118Z,38528
2017-05-21T07:09:38.435Z,37440
2017-05-21T07:10:38.436Z,36896
2017-05-21T07:11:37.818Z,36256
2017-05-21T07:12:38.441Z,34496
2017-05-21T07:13:38.437Z,33280
2017-05-21T07:14:37.825Z,33248
2017-05-21T07:15:37.831Z,34304
2017-05-21T07:16:38.139Z,34368
2017-05-21T07:17:38.137Z,32864
2017-05-21T07:18:37.838Z,31392
2017-05-21T07:19:38.449Z,31904
2017-05-21T07:20:37.834Z,32896
2017-05-21T07:21:38.450Z,33952
2017-05-21T07:22:37.852Z,34400
2017-05-21T07:23:38.149Z,33504
2017-05-21T07:24:38.455Z,31840
2017-05-21T07:25:38.152Z,32224
2017-05-21T07:26:38.459Z,31392
2017-05-21T07:27:38.461Z,29664
2017-05-21T07:28:38.457Z,27584
2017-05-21T07:29:38.459Z,27424
2017-05-21T07:30:38.152Z,29984
2017-05-21T07:31:38.459Z,32672
2017-05-21T07:32:38.160Z,31680
2017-05-21T07:33:38.154Z,27488
2017-05-21T07:34:38.458Z,23648
2017-05-21T07:35:38.461Z,17184
2017-05-21T07:36:38.459Z,10424
2017-05-21T07:37:38.461Z,8996
2017-05-21T07:38:38.153Z,8808
2017-05-21T07:39:38.462Z,8592
2017-05-21T07:40:38.458Z,8404
2017-05-21T07:41:38.457Z,8176
2017-05-21T07:42:38.153Z,8012
2017-05-21T07:43:38.460Z,7800
2017-05-21T07:44:38.151Z,7680
2017-05-21T07:45:38.147Z,7472
2017-05-21T07:46:38.458Z,7336
2017-05-21T07:47:38.456Z,7140
2017-05-21T07:48:38.458Z,6988
2017-05-21T07:49:38.455Z,6852
2017-05-21T07:50:38.143Z,6668
2017-05-21T07:51:38.149Z,6512
2017-05-21T07:52:38.454Z,6376
2017-05-21T07:53:38.445Z,6236
2017-05-21T07:54:38.142Z,6084
2017-05-21T07:55:38.146Z,5968
2017-05-21T07:56:38.444Z,5820
2017-05-21T07:57:38.444Z,5696
2017-05-21T07:58:38.442Z,5532
2017-05-21T07:59:37.521Z,5404
2017-05-21T08:00:38.135Z,5324
2017-05-21T08:01:38.437Z,5160
2017-05-21T08:02:38.442Z,5064
2017-05-21T08:03:38.437Z,4908
2017-05-21T08:04:38.125Z,4816
2017-05-21T08:05:38.429Z,4732
2017-05-21T08:06:38.125Z,4568
2017-05-21T08:07:38.427Z,4472
2017-05-21T08:08:38.119Z,4372
2017-05-21T08:09:37.819Z,4296
2017-05-21T08:10:38.120Z,4164
2017-05-21T08:11:38.420Z,4044
2017-05-21T08:12:37.803Z,3960
2017-05-21T08:13:38.435Z,3840
2017-05-21T08:14:38.628Z,3780
2017-05-21T08:15:38.412Z,3676
2017-05-21T08:16:38.407Z,3564
2017-05-21T08:17:38.411Z,3472
2017-05-21T08:18:38.410Z,3408
2017-05-21T08:19:37.790Z,3316
2017-05-21T08:20:38.096Z,3236
2017-05-21T08:21:38.404Z,3160
2017-05-21T08:22:38.093Z,3092
2017-05-21T08:23:38.400Z,2996
2017-05-21T08:24:38.392Z,2920
2017-05-21T08:25:38.392Z,2860
2017-05-21T08:26:38.387Z,2776
2017-05-21T08:27:38.077Z,2724
2017-05-21T08:28:37.772Z,2684
2017-05-21T08:29:38.078Z,2632
2017-05-21T08:30:37.769Z,2544
2017-05-21T08:31:38.376Z,2464
2017-05-21T08:32:38.065Z,2344
2017-05-21T08:33:38.066Z,2212
2017-05-21T08:34:38.418Z,2136
2017-05-21T08:35:37.751Z,2140
2017-05-21T08:36:38.052Z,2100
2017-05-21T08:37:38.053Z,2052
2017-05-21T08:38:38.052Z,2024
2017-05-21T08:39:38.047Z,2004
2017-05-21T08:40:38.346Z,2012
2017-05-21T08:41:38.038Z,1980
2017-05-21T08:42:38.040Z,1952
2017-05-21T08:43:38.345Z,1952
2017-05-21T08:44:38.032Z,1964
2017-05-21T08:45:38.336Z,1976
2017-05-21T08:46:37.416Z,1952
2017-05-21T08:47:37.721Z,1932
2017-05-21T08:48:38.027Z,1968
2017-05-21T08:49:37.707Z,1948
2017-05-21T08:50:38.319Z,1944
2017-05-21T08:51:38.007Z,1948
2017-05-21T08:52:38.315Z,1932
2017-05-21T08:53:38.315Z,1916
2017-05-21T08:54:38.306Z,1952
2017-05-21T08:55:38.343Z,1940
2017-05-21T08:56:37.998Z,1916
2017-05-21T08:57:37.689Z,1904
2017-05-21T08:58:38.292Z,1896
2017-05-21T08:59:38.290Z,1912
2017-05-21T09:00:38.304Z,1896
2017-05-21T09:01:37.973Z,1884
2017-05-21T09:02:37.972Z,1864
2017-05-21T09:03:37.968Z,1844
2017-05-21T09:04:38.273Z,1856
2017-05-21T09:05:37.963Z,1824
2017-05-21T09:06:37.655Z,1856
2017-05-21T09:07:38.267Z,1832
2017-05-21T09:08:38.261Z,1832
2017-05-21T09:09:37.643Z,1836
2017-05-21T09:10:37.951Z,1812
2017-05-21T09:11:38.251Z,1800
2017-05-21T09:12:37.966Z,1820
2017-05-21T09:13:38.246Z,1808
2017-05-21T09:14:37.985Z,1804
2017-05-21T09:15:38.243Z,1832
2017-05-21T09:16:38.236Z,1820
2017-05-21T09:17:38.232Z,1824
2017-05-21T09:18:38.231Z,1800
2017-05-21T09:19:38.225Z,1808
2017-05-21T09:20:37.978Z,1784
2017-05-21T09:21:38.219Z,1780
2017-05-21T09:22:38.213Z,1736
2017-05-21T09:23:38.212Z,1760
2017-05-21T09:24:38.206Z,1764
2017-05-21T09:25:37.893Z,1748
2017-05-21T09:26:37.892Z,1744
2017-05-21T09:27:38.199Z,1760
2017-05-21T09:28:37.583Z,1744
2017-05-21T09:29:37.888Z,1760
2017-05-21T09:30:37.879Z,1728
2017-05-21T09:31:38.183Z,1736
2017-05-21T09:32:38.179Z,1764
2017-05-21T09:33:37.867Z,1760
2017-05-21T09:34:38.171Z,1748
2017-05-21T09:35:38.177Z,1724
2017-05-21T09:36:37.867Z,1752
2017-05-21T09:37:37.552Z,1772
2017-05-21T09:38:37.852Z,1796
2017-05-21T09:39:37.850Z,1812
2017-05-21T09:40:37.846Z,1824
2017-05-21T09:41:37.838Z,1808
2017-05-21T09:42:37.532Z,1784
2017-05-21T09:43:37.834Z,1752
2017-05-21T09:44:37.828Z,1720
2017-05-21T09:45:38.138Z,1728
2017-05-21T09:46:37.514Z,1728
2017-05-21T09:47:38.128Z,1712
2017-05-21T09:48:37.516Z,1700
2017-05-21T09:49:38.122Z,1684
2017-05-21T09:50:37.809Z,1656
2017-05-21T09:51:38.111Z,1648
2017-05-21T09:52:37.499Z,1660
2017-05-21T09:53:38.105Z,1656
2017-05-21T09:54:38.102Z,1656
2017-05-21T09:55:37.790Z,1660
2017-05-21T09:56:38.091Z,1652
2017-05-21T09:57:37.783Z,1644
2017-05-21T09:58:37.780Z,1640
2017-05-21T09:59:37.777Z,1636
2017-05-21T10:00:38.078Z,1628
2017-05-21T10:01:37.770Z,1628
2017-05-21T10:02:37.770Z,1624
2017-05-21T10:03:38.071Z,1604
2017-05-21T10:04:37.759Z,1616
2017-05-21T10:05:38.060Z,1592
2017-05-21T10:06:37.753Z,1604
2017-05-21T10:07:37.749Z,1592
2017-05-21T10:08:37.746Z,1588
2017-05-21T10:09:37.740Z,1572
2017-05-21T10:10:37.433Z,1568
2017-05-21T10:11:38.040Z,1572
2017-05-21T10:12:37.730Z,1588
2017-05-21T10:13:37.733Z,1592
2017-05-21T10:14:38.027Z,1584
2017-05-21T10:15:37.717Z,1560
2017-05-21T10:16:37.414Z,1536
2017-05-21T10:17:38.021Z,1532
2017-05-21T10:18:37.707Z,1520
2017-05-21T10:19:37.708Z,1536
2017-05-21T10:20:38.015Z,1556
2017-05-21T10:21:37.389Z,1540
2017-05-21T10:22:37.693Z,1520
2017-05-21T10:23:37.700Z,1520
2017-05-21T10:24:37.689Z,1556
2017-05-21T10:25:37.379Z,1552
2017-05-21T10:26:37.682Z,1584
2017-05-21T10:27:37.985Z,1604
2017-05-21T10:28:37.368Z,1620
2017-05-21T10:29:37.972Z,1604
2017-05-21T10:30:37.663Z,1632
2017-05-21T10:31:37.664Z,1616
2017-05-21T10:32:37.360Z,1592
2017-05-21T10:33:37.652Z,1576
2017-05-21T10:34:37.654Z,1580
2017-05-21T10:35:37.646Z,1564
2017-05-21T10:36:37.647Z,1536
2017-05-21T10:37:37.640Z,1536
2017-05-21T10:38:37.636Z,1548
2017-05-21T10:39:37.327Z,1580
2017-05-21T10:40:37.967Z,1600
2017-05-21T10:41:37.930Z,1640
2017-05-21T10:42:37.625Z,1712
2017-05-21T10:43:37.922Z,1676
2017-05-21T10:44:37.926Z,1672
2017-05-21T10:45:37.918Z,1632
2017-05-21T10:46:37.914Z,1620
2017-05-21T10:47:37.599Z,1592
2017-05-21T10:48:37.907Z,1620
2017-05-21T10:49:37.908Z,1620
2017-05-21T10:50:37.611Z,1616
2017-05-21T10:51:37.585Z,1576
2017-05-21T10:52:37.583Z,1524
2017-05-21T10:53:37.278Z,1212
2017-05-21T10:54:37.575Z,1508
2017-05-21T10:55:37.570Z,1504
2017-05-21T10:56:37.569Z,1512
2017-05-21T10:57:37.566Z,1496
2017-05-21T10:58:37.563Z,1492
2017-05-21T10:59:37.556Z,1496
2017-05-21T11:00:37.605Z,1516
2017-05-21T11:01:36.937Z,1508
2017-05-21T11:02:37.545Z,1504
2017-05-21T11:03:37.544Z,1472
2017-05-21T11:04:37.849Z,1468
2017-05-21T11:05:37.841Z,1484
2017-05-21T11:06:38.050Z,1480
2017-05-21T11:07:37.534Z,1476
2017-05-21T11:08:37.836Z,1524
2017-05-21T11:09:37.524Z,1648
2017-05-21T11:10:37.517Z,1772
2017-05-21T11:11:37.823Z,1780
2017-05-21T11:12:37.830Z,1616
2017-05-21T11:13:37.815Z,1472
2017-05-21T11:14:37.504Z,1452
2017-05-21T11:15:37.503Z,1448
2017-05-21T11:16:37.498Z,1440
2017-05-21T11:17:37.494Z,1444
2017-05-21T11:18:37.186Z,1460
2017-05-21T11:19:37.790Z,1480
2017-05-21T11:20:37.788Z,1484
2017-05-21T11:21:37.168Z,1512
2017-05-21T11:22:37.780Z,1524
2017-05-21T11:23:37.781Z,1556
2017-05-21T11:24:37.777Z,1580
2017-05-21T11:25:37.477Z,1620
2017-05-21T11:26:37.457Z,1636
2017-05-21T11:27:37.515Z,1692
2017-05-21T11:28:37.452Z,1776
2017-05-21T11:29:37.757Z,1836
2017-05-21T11:30:37.443Z,1920
2017-05-21T11:31:37.444Z,2036
2017-05-21T11:32:37.439Z,2196
2017-05-21T11:33:37.129Z,2296
2017-05-21T11:34:37.743Z,2552
2017-05-21T11:35:37.730Z,2848
2017-05-21T11:36:37.425Z,3008
2017-05-21T11:37:37.740Z,2924
2017-05-21T11:38:37.735Z,3092
2017-05-21T11:39:37.721Z,3388
2017-05-21T11:40:37.410Z,3504
2017-05-21T11:41:37.410Z,3236
2017-05-21T11:42:37.100Z,2756
2017-05-21T11:43:37.419Z,2204
2017-05-21T11:44:37.398Z,2068
2017-05-21T11:45:37.392Z,2028
2017-05-21T11:46:37.381Z,2284
2017-05-21T11:47:37.382Z,2444
2017-05-21T11:48:37.377Z,2740
2017-05-21T11:49:37.377Z,2908
2017-05-21T11:50:37.371Z,3452
2017-05-21T11:51:37.671Z,4040
2017-05-21T11:52:37.373Z,4164
2017-05-21T11:53:37.359Z,4332
2017-05-21T11:54:37.055Z,4740
2017-05-21T11:55:36.743Z,4788
2017-05-21T11:56:37.361Z,4780
2017-05-21T11:57:37.351Z,4456
2017-05-21T11:58:37.350Z,4156
2017-05-21T11:59:37.342Z,4212
2017-05-21T12:00:37.340Z,4336
2017-05-21T12:01:37.029Z,4424
2017-05-21T12:02:37.644Z,4376
2017-05-21T12:03:37.328Z,4132
2017-05-21T12:04:37.633Z,4032
2017-05-21T12:05:36.708Z,4092
2017-05-21T12:06:37.315Z,4240
2017-05-21T12:07:37.316Z,4476
2017-05-21T12:08:36.703Z,4692
2017-05-21T12:09:37.308Z,4464
2017-05-21T12:10:37.301Z,4304
2017-05-21T12:11:37.300Z,4204
2017-05-21T12:12:36.993Z,4516
2017-05-21T12:13:37.298Z,4528
2017-05-21T12:14:37.291Z,4576
2017-05-21T12:15:37.289Z,4724
2017-05-21T12:16:37.282Z,4864
2017-05-21T12:17:36.978Z,4772
2017-05-21T12:18:36.972Z,4708
2017-05-21T12:19:36.966Z,4680
2017-05-21T12:20:37.272Z,4716
2017-05-21T12:21:37.578Z,4792
2017-05-21T12:22:37.582Z,4952
2017-05-21T12:23:37.262Z,5008
2017-05-21T12:24:37.263Z,4932
2017-05-21T12:25:37.259Z,4964
2017-05-21T12:26:37.556Z,5128
2017-05-21T12:27:36.946Z,5160
2017-05-21T12:28:37.248Z,5088
2017-05-21T12:29:37.251Z,5068
2017-05-21T12:30:37.245Z,5036
2017-05-21T12:31:37.237Z,5004
2017-05-21T12:32:37.234Z,4980
2017-05-21T12:33:37.535Z,4972
2017-05-21T12:34:37.232Z,4828
2017-05-21T12:35:37.529Z,4728
2017-05-21T12:36:37.530Z,4528
2017-05-21T12:37:37.224Z,4208
2017-05-21T12:38:37.217Z,3908
2017-05-21T12:39:37.522Z,3620
2017-05-21T12:40:37.519Z,3284
2017-05-21T12:41:37.514Z,2984
2017-05-21T12:42:37.203Z,2728
2017-05-21T12:43:36.899Z,2568
2017-05-21T12:44:37.509Z,2532
2017-05-21T12:45:37.500Z,2464
2017-05-21T12:46:37.496Z,2560
2017-05-21T12:47:37.493Z,2700
2017-05-21T12:48:37.493Z,2788
2017-05-21T12:49:37.199Z,2868
2017-05-21T12:50:37.183Z,2940
2017-05-21T12:51:37.175Z,3004
2017-05-21T12:52:37.174Z,3132
2017-05-21T12:53:37.170Z,3316
2017-05-21T12:54:37.172Z,3492
2017-05-21T12:55:37.164Z,3740
2017-05-21T12:56:36.853Z,3972
2017-05-21T12:57:37.461Z,4128
2017-05-21T12:58:37.157Z,4336
2017-05-21T12:59:37.155Z,4440
2017-05-21T13:00:37.147Z,4424
2017-05-21T13:01:37.455Z,4388
2017-05-21T13:02:37.449Z,4420
2017-05-21T13:03:37.447Z,4536
2017-05-21T13:04:37.503Z,4548
2017-05-21T13:05:37.443Z,4632
2017-05-21T13:06:37.436Z,4868
2017-05-21T13:07:37.440Z,4868
2017-05-21T13:08:37.123Z,4808
2017-05-21T13:09:37.431Z,4624
2017-05-21T13:10:37.431Z,4644
2017-05-21T13:11:37.414Z,4608
2017-05-21T13:12:37.420Z,4676
2017-05-21T13:13:37.459Z,4704
2017-05-21T13:14:37.410Z,4656
2017-05-21T13:15:37.405Z,4780
2017-05-21T13:16:37.404Z,4640
2017-05-21T13:17:37.407Z,4292
2017-05-21T13:18:37.094Z,4064
2017-05-21T13:19:36.787Z,4020
2017-05-21T13:20:37.083Z,3892
2017-05-21T13:21:37.387Z,3928
2017-05-21T13:22:37.080Z,3932
2017-05-21T13:23:37.077Z,3952
2017-05-21T13:24:37.379Z,4084
2017-05-21T13:25:37.380Z,4188
2017-05-21T13:26:37.376Z,4124
2017-05-21T13:27:36.758Z,4088
2017-05-21T13:28:37.063Z,3968
2017-05-21T13:29:37.064Z,4000
2017-05-21T13:30:37.364Z,3964
2017-05-21T13:31:37.057Z,3996
2017-05-21T13:32:37.056Z,3996
2017-05-21T13:33:37.051Z,4040
2017-05-21T13:34:36.424Z,4136
2017-05-21T13:35:36.736Z,4152
2017-05-21T13:36:37.039Z,4188